Startpagina
METAR-TAF:

METAR-TAF

Vliegvelden :

Bamako, Mali

Luchthaven Bamako

breedte: 12-32N, lengte: 007-57W, hoogte: 380 m

Actueel weer

Dit bericht is 44 minuten geleden gemaakt, om 03:30 UTC
Wind 1 kt uit het oosten
Temperatuur 24°C
Vochtigheid 54%
Druk 1010 hPa
Zicht 10 km of meer
geen wolken onder 1500 m en geen cumulonimbus

METAR: GABS 240330Z 09001KT CAVOK 24/14 Q1010 NOSIG

Tijdstip: 04:14 (04:14 UTC)

Verwachting

Dit bericht is 5 uur en het 9 minuten geleden gemaakt, om 23:05 UTC
Verwachting geldig van 24 om 00 UTC tot 25 om 06 UTC
Wind 10 kt uit het zuidzuidoosten
Zicht: 8000 m
Kans 30% :
Tijdelijke
van 24 om 14 UTC tot 24 om 20 UTC
Weinig wolken op 3000 ft
Weinig wolken op 3300 ft, Cumulonimbus.
onweer

TAF: GABS 232305Z 2400/2506 16010KT 8000 NSC PROB30 TEMPO 2414/2420 TS FEW030 FEW033CB

Waarnemingen en weersverwachtingen van meer dan 4000 vliegvelden (METAR en TAF).

De beschikbare stations zijn de gele en rode punten op de kaart.

Ga met uw muis naar het station om de naam te zien.

Klik dan om waarnemingen en weersverwachtingen te zien.

kaart wijzigen: klik op de groene knoppen met een zwart kruis om in te zoomen, op de groene knop met een streepje om uit te zoomen of op de groene pijlen voor aangrenzende kaarten.


METAR-TAF: